Time;durP1;ratioP1;P1;durP2;ratioP2;P2;SDS_P1;SDS_P2;PMS_P1;PMS_P2;Temp;Humidity;BMP_temperature;BMP_pressure;BME280_temperature;BME280_humidity;BME280_pressure;Samples;Min_cycle;Max_cycle;Signal;HPM_P1;HPM_P2
2021/04/06 00:00:52;;;;;;;13.23;2.70;;;2.80;99.90;;;;;;5034144;28;20033;-87
2021/04/06 00:03:21;;;;;;;22.70;3.08;;;2.80;99.90;;;;;;5035127;28;20025;-87
2021/04/06 00:05:50;;;;;;;20.40;3.15;;;2.80;99.90;;;;;;5033843;28;20072;-87
2021/04/06 00:08:17;;;;;;;15.00;2.45;;;2.70;99.90;;;;;;5035067;28;20021;-87
2021/04/06 00:10:46;;;;;;;23.00;2.13;;;2.70;99.90;;;;;;5034904;28;20029;-86
2021/04/06 00:13:12;;;;;;;23.77;3.80;;;2.70;99.90;;;;;;5033805;28;20018;-87
2021/04/06 00:15:40;;;;;;;16.38;2.40;;;2.70;99.90;;;;;;5033560;28;20024;-87
2021/04/06 00:18:08;;;;;;;21.10;2.72;;;2.70;99.90;;;;;;5033656;28;20028;-87
2021/04/06 00:20:37;;;;;;;16.77;3.17;;;2.70;99.90;;;;;;5033036;28;20028;-86
2021/04/06 00:23:04;;;;;;;15.25;2.08;;;2.70;99.90;;;;;;5033724;28;20466;-87
2021/04/06 00:25:36;;;;;;;18.63;3.20;;;2.70;99.90;;;;;;5033400;28;20030;-87
2021/04/06 00:28:09;;;;;;;14.60;2.03;;;2.70;99.90;;;;;;5047198;28;20045;-87
2021/04/06 00:30:36;;;;;;;13.20;1.83;;;2.60;99.90;;;;;;5053686;28;20025;-87
2021/04/06 00:33:09;;;;;;;16.60;1.95;;;2.70;99.90;;;;;;5069879;28;20025;-87
2021/04/06 00:35:37;;;;;;;24.38;2.30;;;2.70;99.90;;;;;;5053488;28;20021;-87
2021/04/06 00:38:08;;;;;;;14.93;2.50;;;2.60;99.90;;;;;;5053345;28;20025;-87
2021/04/06 00:40:40;;;;;;;17.98;2.42;;;2.60;99.90;;;;;;5053243;28;20116;-86
2021/04/06 00:43:06;;;;;;;16.52;1.92;;;2.60;99.90;;;;;;5054549;28;20496;-87
2021/04/06 00:45:38;;;;;;;14.25;2.53;;;2.60;99.90;;;;;;5053243;28;20053;-87
2021/04/06 00:48:10;;;;;;;13.70;2.67;;;2.70;99.90;;;;;;5053116;28;20088;-87
2021/04/06 00:50:37;;;;;;;27.58;3.38;;;2.70;99.90;;;;;;5053098;28;20079;-88
2021/04/06 00:53:03;;;;;;;22.60;3.10;;;2.70;99.90;;;;;;5054242;28;20028;-87
2021/04/06 00:55:37;;;;;;;16.63;2.35;;;2.70;99.90;;;;;;5054076;28;20070;-87
2021/04/06 00:58:16;;;;;;;19.08;2.67;;;2.80;99.90;;;;;;5053151;28;20029;-87
2021/04/06 01:00:43;;;;;;;17.27;2.80;;;2.80;99.90;;;;;;5054195;28;20104;-87
2021/04/06 01:03:14;;;;;;;15.43;2.08;;;2.80;99.90;;;;;;5054304;28;20116;-87
2021/04/06 01:05:58;;;;;;;16.33;2.35;;;2.80;99.90;;;;;;5054006;28;20096;-87
2021/04/06 01:08:30;;;;;;;18.42;3.20;;;2.90;99.90;;;;;;5053851;28;20083;-87
2021/04/06 01:10:56;;;;;;;14.73;2.17;;;2.90;99.90;;;;;;5052846;28;20499;-87
2021/04/06 01:13:23;;;;;;;11.05;2.20;;;2.80;99.90;;;;;;5052559;28;20028;-87
2021/04/06 01:15:50;;;;;;;13.82;2.15;;;2.70;99.90;;;;;;5059852;28;20492;-87
2021/04/06 01:18:17;;;;;;;17.20;3.42;;;2.60;99.90;;;;;;5033813;28;20029;-86
2021/04/06 01:20:43;;;;;;;13.27;2.22;;;2.50;99.90;;;;;;5032634;28;20021;-87
2021/04/06 01:23:10;;;;;;;14.88;1.85;;;2.40;99.90;;;;;;5032678;28;20392;-87
2021/04/06 01:25:43;;;;;;;15.00;2.50;;;2.40;99.90;;;;;;5032312;28;20170;-87
2021/04/06 01:28:10;;;;;;;13.73;2.95;;;2.40;99.90;;;;;;5032288;28;20116;-87
2021/04/06 01:30:54;;;;;;;15.32;2.58;;;2.40;99.90;;;;;;5048955;28;20405;-87
2021/04/06 01:33:24;;;;;;;16.38;3.85;;;2.40;99.90;;;;;;5032338;28;20029;-87
2021/04/06 01:35:53;;;;;;;24.80;3.80;;;2.40;99.90;;;;;;5032159;28;20037;-87
2021/04/06 01:38:22;;;;;;;19.15;2.58;;;2.40;99.90;;;;;;5032505;28;20119;-87
2021/04/06 01:40:48;;;;;;;16.50;3.00;;;2.40;99.90;;;;;;5032262;28;20032;-87
2021/04/06 01:43:16;;;;;;;18.50;2.83;;;2.40;99.90;;;;;;5033396;28;20030;-87
2021/04/06 01:45:45;;;;;;;20.33;2.47;;;2.40;99.90;;;;;;5032095;28;20453;-87
2021/04/06 01:48:16;;;;;;;20.13;4.00;;;2.50;99.90;;;;;;5048608;28;20022;-87
2021/04/06 01:50:46;;;;;;;15.70;2.95;;;2.50;99.90;;;;;;5048834;28;20021;-87
2021/04/06 01:53:12;;;;;;;24.75;2.97;;;2.50;99.90;;;;;;5048932;28;20022;-87
2021/04/06 01:55:39;;;;;;;20.08;3.78;;;2.50;99.90;;;;;;5031960;28;20025;-87
2021/04/06 01:58:06;;;;;;;18.83;3.15;;;2.50;99.90;;;;;;5048600;28;20362;-87
2021/04/06 02:00:55;;;;;;;17.02;2.95;;;2.40;99.90;;;;;;5031931;28;20045;-87
2021/04/06 02:03:22;;;;;;;22.20;2.78;;;2.40;99.90;;;;;;5033269;28;20028;-87
2021/04/06 02:05:47;;;;;;;21.90;2.92;;;2.20;99.90;;;;;;5033013;28;20082;-87
2021/04/06 02:08:18;;;;;;;19.77;3.33;;;2.20;99.90;;;;;;5048474;28;20489;-87
2021/04/06 02:10:44;;;;;;;20.30;2.58;;;2.20;99.90;;;;;;5031912;28;20025;-87
2021/04/06 02:13:15;;;;;;;15.45;2.30;;;2.30;99.90;;;;;;5048475;28;20025;-87
2021/04/06 02:15:54;;;;;;;16.60;3.55;;;2.30;99.90;;;;;;5031773;28;20020;-87
2021/04/06 02:18:22;;;;;;;18.85;2.33;;;2.30;99.90;;;;;;5033085;28;20032;-87
2021/04/06 02:20:52;;;;;;;17.73;2.20;;;2.20;99.90;;;;;;5032968;28;20029;-87
2021/04/06 02:23:18;;;;;;;14.30;2.40;;;2.20;99.90;;;;;;5031800;28;20025;-87
2021/04/06 02:25:55;;;;;;;14.35;2.22;;;2.20;99.90;;;;;;5031789;28;20030;-87
2021/04/06 02:28:22;;;;;;;16.80;2.30;;;2.20;99.90;;;;;;5031568;28;20025;-87
2021/04/06 02:30:59;;;;;;;24.58;2.83;;;2.20;99.90;;;;;;5031969;28;20033;-87
2021/04/06 02:33:46;;;;;;;26.25;4.30;;;2.20;99.90;;;;;;5032051;28;20021;-87
2021/04/06 02:36:12;;;;;;;16.50;2.47;;;2.10;99.90;;;;;;5032090;28;20477;-87
2021/04/06 02:38:44;;;;;;;16.70;2.55;;;2.10;99.90;;;;;;5032945;28;20045;-87
2021/04/06 02:41:15;;;;;;;26.50;4.53;;;2.10;99.90;;;;;;5032736;28;20054;-87
2021/04/06 02:43:44;;;;;;;16.92;2.35;;;2.00;99.90;;;;;;5034918;28;20029;-87
2021/04/06 02:46:12;;;;;;;16.75;2.60;;;2.00;99.90;;;;;;5035609;28;20021;-87
2021/04/06 02:48:38;;;;;;;17.02;2.22;;;2.00;99.90;;;;;;5035357;28;20065;-87
2021/04/06 02:51:04;;;;;;;15.38;2.70;;;2.00;99.90;;;;;;5035728;28;20028;-87
2021/04/06 02:53:32;;;;;;;17.02;2.58;;;1.90;99.90;;;;;;5035529;28;20029;-87
2021/04/06 02:55:58;;;;;;;27.60;2.67;;;1.90;99.90;;;;;;5036509;28;20579;-86
2021/04/06 02:58:24;;;;;;;16.73;2.92;;;1.80;99.90;;;;;;5035442;28;20072;-87
2021/04/06 03:00:49;;;;;;;20.05;2.22;;;1.80;99.90;;;;;;5035335;28;20090;-87
2021/04/06 03:03:24;;;;;;;17.83;3.13;;;1.80;99.90;;;;;;5036505;28;20053;-87
2021/04/06 03:06:13;;;;;;;15.38;2.75;;;1.70;99.90;;;;;;5035020;28;20473;-87
2021/04/06 03:08:40;;;;;;;17.20;2.57;;;1.70;99.90;;;;;;5036353;28;20037;-87
2021/04/06 03:11:08;;;;;;;17.40;2.20;;;1.70;99.90;;;;;;5035173;28;20033;-87
2021/04/06 03:13:37;;;;;;;12.38;1.95;;;1.70;99.90;;;;;;5036161;28;20021;-87
2021/04/06 03:16:04;;;;;;;24.60;3.60;;;1.70;99.90;;;;;;5034780;28;20022;-87
2021/04/06 03:18:35;;;;;;;17.40;2.28;;;1.70;99.90;;;;;;5034867;28;20025;-87
2021/04/06 03:21:04;;;;;;;10.57;2.83;;;1.70;99.90;;;;;;5035139;28;20025;-87
2021/04/06 03:23:30;;;;;;;15.27;1.80;;;1.70;99.90;;;;;;5036444;28;20113;-87
2021/04/06 03:25:57;;;;;;;10.50;2.17;;;1.80;99.90;;;;;;5034773;28;20036;-87
2021/04/06 03:28:30;;;;;;;11.13;1.85;;;1.80;99.90;;;;;;5034738;28;20499;-87
2021/04/06 03:31:13;;;;;;;12.23;2.05;;;1.90;99.90;;;;;;5035357;28;20036;-87
2021/04/06 03:33:41;;;;;;;17.90;2.65;;;2.00;99.90;;;;;;5036212;28;20017;-87
2021/04/06 03:36:07;;;;;;;8.23;1.08;;;2.00;99.90;;;;;;5034638;28;20025;-87
2021/04/06 03:38:34;;;;;;;9.68;0.80;;;2.00;99.90;;;;;;5034724;28;20029;-87
2021/04/06 03:41:00;;;;;;;4.75;0.70;;;1.70;99.90;;;;;;5034379;28;20071;-87
2021/04/06 03:43:26;;;;;;;7.78;1.73;;;1.50;99.90;;;;;;5034814;28;20122;-87
2021/04/06 03:45:59;;;;;;;5.90;0.85;;;1.40;99.90;;;;;;5034387;28;20053;-87
2021/04/06 03:48:27;;;;;;;10.13;1.20;;;1.30;99.90;;;;;;5034323;28;20021;-87
2021/04/06 03:50:53;;;;;;;11.35;1.70;;;1.20;99.90;;;;;;5034444;28;20021;-86
2021/04/06 03:53:20;;;;;;;6.68;0.98;;;1.20;99.90;;;;;;5033662;28;20025;-87
2021/04/06 03:56:00;;;;;;;10.50;1.70;;;1.20;99.90;;;;;;5033873;28;20233;-87
2021/04/06 03:58:28;;;;;;;5.28;0.82;;;1.30;99.90;;;;;;5035355;28;20022;-87
2021/04/06 04:00:53;;;;;;;9.70;1.60;;;1.30;99.90;;;;;;5033606;28;20439;-87
2021/04/06 04:03:19;;;;;;;4.65;0.85;;;1.30;99.90;;;;;;5034604;28;20018;-87
2021/04/06 04:05:44;;;;;;;13.88;1.60;;;1.30;99.90;;;;;;5034270;28;20029;-87
2021/04/06 04:08:10;;;;;;;8.75;1.65;;;1.30;99.90;;;;;;5033815;28;20025;-87
2021/04/06 04:10:35;;;;;;;5.05;1.55;;;1.30;99.90;;;;;;5035228;28;20033;-87
2021/04/06 04:13:01;;;;;;;7.45;1.08;;;1.20;99.90;;;;;;5033894;28;20390;-87
2021/04/06 04:15:26;;;;;;;8.50;1.55;;;1.20;99.90;;;;;;5033193;28;20477;-87
2021/04/06 04:17:53;;;;;;;9.85;1.50;;;1.20;99.90;;;;;;5033992;28;20033;-87
2021/04/06 04:20:22;;;;;;;5.45;0.90;;;1.20;99.90;;;;;;5033426;28;20035;-87
2021/04/06 04:22:49;;;;;;;9.95;1.08;;;1.10;99.90;;;;;;5035001;28;20061;-87
2021/04/06 04:25:17;;;;;;;7.45;1.10;;;1.10;99.90;;;;;;5033635;28;20033;-87
2021/04/06 04:27:44;;;;;;;9.18;1.20;;;1.10;99.90;;;;;;5033566;28;20556;-87
2021/04/06 04:30:11;;;;;;;5.28;0.77;;;1.10;99.90;;;;;;5050095;28;20029;-87
2021/04/06 04:32:37;;;;;;;6.60;1.33;;;1.10;99.90;;;;;;5034367;28;20029;-87
2021/04/06 04:35:03;;;;;;;10.75;0.90;;;1.10;99.90;;;;;;5050034;28;20032;-87
2021/04/06 04:37:29;;;;;;;9.02;1.00;;;1.00;99.90;;;;;;5033369;28;20392;-87
2021/04/06 04:39:55;;;;;;;9.20;1.40;;;1.00;99.90;;;;;;5033444;28;20023;-87
2021/04/06 04:42:20;;;;;;;6.75;1.13;;;1.00;99.90;;;;;;5034429;28;20405;-87
2021/04/06 04:44:46;;;;;;;10.25;1.58;;;1.00;99.90;;;;;;5033301;28;20025;-87
2021/04/06 04:47:11;;;;;;;8.20;1.10;;;1.00;99.90;;;;;;5034322;28;20473;-87
2021/04/06 04:49:37;;;;;;;5.30;1.00;;;1.00;99.90;;;;;;5040803;28;20057;-87
2021/04/06 04:52:03;;;;;;;11.57;1.50;;;1.00;99.90;;;;;;5029310;28;20029;-87
2021/04/06 04:54:28;;;;;;;15.85;2.55;;;1.10;99.90;;;;;;5012469;28;20037;-87
2021/04/06 04:56:54;;;;;;;10.90;1.25;;;1.10;99.90;;;;;;5026897;28;20048;-87
2021/04/06 04:59:20;;;;;;;18.83;2.30;;;1.10;99.90;;;;;;5033625;28;20029;-87
2021/04/06 05:01:46;;;;;;;12.25;1.67;;;1.10;99.90;;;;;;5031616;28;20040;-87
2021/04/06 05:04:11;;;;;;;10.70;2.88;;;1.20;99.90;;;;;;5032670;28;20029;-87
2021/04/06 05:06:37;;;;;;;16.25;1.70;;;1.10;99.90;;;;;;5031651;28;20029;-87
2021/04/06 05:09:05;;;;;;;17.80;1.70;;;1.10;99.90;;;;;;5032784;28;20037;-87
2021/04/06 05:11:31;;;;;;;15.90;2.10;;;1.20;99.90;;;;;;5032702;28;20030;-87
2021/04/06 05:13:57;;;;;;;18.20;1.60;;;1.20;99.90;;;;;;5049215;28;20040;-87
2021/04/06 05:16:22;;;;;;;10.70;1.98;;;1.20;99.90;;;;;;5032381;28;20448;-87
2021/04/06 05:18:48;;;;;;;12.63;2.22;;;1.20;99.90;;;;;;5033356;28;20029;-87
2021/04/06 05:21:14;;;;;;;12.95;2.22;;;1.20;99.90;;;;;;5032903;28;20064;-88
2021/04/06 05:23:39;;;;;;;8.32;1.30;;;1.20;99.90;;;;;;5032864;28;20032;-87
2021/04/06 05:26:05;;;;;;;10.25;1.65;;;1.30;99.90;;;;;;5032813;28;20029;-87
2021/04/06 05:28:31;;;;;;;14.65;2.20;;;1.30;99.90;;;;;;5049126;28;20084;-87
2021/04/06 05:30:56;;;;;;;10.75;1.75;;;1.30;99.90;;;;;;5032823;28;20021;-87
2021/04/06 05:33:22;;;;;;;11.88;1.50;;;1.30;99.90;;;;;;5032567;28;20029;-87
2021/04/06 05:35:50;;;;;;;10.32;2.08;;;1.30;99.90;;;;;;5032724;28;20029;-87
2021/04/06 05:38:16;;;;;;;8.57;1.33;;;1.20;99.90;;;;;;5032583;28;20026;-87
2021/04/06 05:40:41;;;;;;;6.90;1.02;;;1.30;99.90;;;;;;5033687;28;20559;-87
2021/04/06 05:43:09;;;;;;;7.97;1.17;;;1.20;99.90;;;;;;5048966;28;20054;-87
2021/04/06 05:45:36;;;;;;;11.75;2.05;;;1.20;99.90;;;;;;5049088;28;20025;-88
2021/04/06 05:48:05;;;;;;;7.70;1.15;;;1.30;99.90;;;;;;5033345;28;20036;-87
2021/04/06 05:50:32;;;;;;;6.57;0.70;;;1.30;99.90;;;;;;5032563;28;20507;-88
2021/04/06 05:53:00;;;;;;;6.55;0.93;;;1.30;99.90;;;;;;5034234;28;20035;-86
2021/04/06 05:55:25;;;;;;;3.20;0.80;;;1.40;99.90;;;;;;5033616;28;20025;-88
2021/04/06 05:57:55;;;;;;;5.97;1.30;;;1.40;99.90;;;;;;5034589;28;20026;-89
2021/04/06 06:00:21;;;;;;;8.75;1.60;;;1.50;99.90;;;;;;5032650;28;20029;-88
2021/04/06 06:02:47;;;;;;;8.30;1.13;;;1.50;99.90;;;;;;5033280;28;20025;-87
2021/04/06 06:05:16;;;;;;;5.50;1.10;;;1.50;99.90;;;;;;5032542;28;20175;-87
2021/04/06 06:07:41;;;;;;;5.03;0.75;;;1.50;99.90;;;;;;5032882;28;20030;-88
2021/04/06 06:10:27;;;;;;;8.07;0.77;;;1.50;99.90;;;;;;5032413;28;20433;-88
2021/04/06 06:12:54;;;;;;;7.82;0.73;;;1.50;99.90;;;;;;5031713;28;20382;-88
2021/04/06 06:15:20;;;;;;;7.65;0.90;;;1.50;99.90;;;;;;5030500;28;20028;-87
2021/04/06 06:18:02;;;;;;;6.65;0.82;;;1.50;99.90;;;;;;5034308;28;20034;-88
2021/04/06 06:20:28;;;;;;;4.32;0.82;;;1.50;99.90;;;;;;5036461;28;20076;-88
2021/04/06 06:22:53;;;;;;;6.85;0.90;;;1.60;99.90;;;;;;5023148;28;20034;-88
2021/04/06 06:25:19;;;;;;;2.85;0.77;;;1.70;99.90;;;;;;5016562;28;20029;-85
2021/04/06 06:27:46;;;;;;;7.28;0.88;;;1.70;99.90;;;;;;5016593;28;20022;-84
2021/04/06 06:30:36;;;;;;;5.82;0.68;;;1.70;99.90;;;;;;5034895;28;20511;-84
2021/04/06 06:33:26;;;;;;;3.75;0.60;;;1.90;99.90;;;;;;5035973;28;20067;-84
2021/04/06 06:35:59;;;;;;;6.47;1.23;;;2.00;99.90;;;;;;5035369;28;20025;-85
2021/04/06 06:38:32;;;;;;;6.65;1.48;;;2.00;99.90;;;;;;5035193;28;20052;-84
2021/04/06 06:41:17;;;;;;;5.63;0.63;;;2.00;99.90;;;;;;5033871;28;20465;-84
2021/04/06 06:43:54;;;;;;;4.45;0.95;;;1.90;99.90;;;;;;5032545;28;20030;-88
2021/04/06 06:46:29;;;;;;;4.75;0.68;;;1.90;99.90;;;;;;5017052;28;20469;-88
2021/04/06 06:49:03;;;;;;;6.45;0.73;;;1.80;99.90;;;;;;5017041;28;20032;-88
2021/04/06 06:51:37;;;;;;;9.05;1.27;;;1.80;99.90;;;;;;5016539;28;20029;-85
2021/04/06 06:54:03;;;;;;;8.65;2.05;;;1.60;99.90;;;;;;5015248;28;20034;-85
2021/04/06 06:56:38;;;;;;;10.18;1.00;;;1.60;99.90;;;;;;5016163;28;20022;-86
2021/04/06 06:59:05;;;;;;;6.38;1.83;;;1.60;99.90;;;;;;5015357;28;20416;-87
2021/04/06 07:01:35;;;;;;;5.93;1.10;;;1.60;99.90;;;;;;5015314;28;20026;-85
2021/04/06 07:04:12;;;;;;;6.50;0.80;;;1.70;99.90;;;;;;5016383;28;20026;-84
2021/04/06 07:06:43;;;;;;;7.40;1.00;;;1.80;99.90;;;;;;5015133;28;20481;-86
2021/04/06 07:09:26;;;;;;;8.55;1.35;;;1.80;99.90;;;;;;5015151;28;20026;-86
2021/04/06 07:11:59;;;;;;;12.35;1.42;;;2.00;99.90;;;;;;5016285;28;20069;-86
2021/04/06 07:14:27;;;;;;;9.90;0.77;;;2.20;99.90;;;;;;5016339;28;20424;-86
2021/04/06 07:16:54;;;;;;;5.15;0.85;;;2.40;99.90;;;;;;5028852;28;20022;-86
2021/04/06 07:19:21;;;;;;;7.30;1.10;;;2.50;99.90;;;;;;5014889;28;20026;-86
2021/04/06 07:21:50;;;;;;;7.75;0.80;;;2.50;99.90;;;;;;5014856;28;20069;-86
2021/04/06 07:24:20;;;;;;;7.55;1.60;;;2.50;99.90;;;;;;5015052;28;20099;-86
2021/04/06 07:26:46;;;;;;;;;;;2.60;99.90;;;;;;5015169;28;20500;-86
2021/04/06 07:29:12;;;;;;;7.10;1.45;;;2.50;99.90;;;;;;5014424;28;19909;-86
2021/04/06 07:31:38;;;;;;;5.32;1.20;;;2.40;99.90;;;;;;5015627;28;20028;-86
2021/04/06 07:34:08;;;;;;;9.70;1.00;;;2.50;99.90;;;;;;5015337;28;20022;-86
2021/04/06 07:36:34;;;;;;;4.10;0.82;;;2.60;99.90;;;;;;5014425;28;20026;-86
2021/04/06 07:39:04;;;;;;;7.03;1.00;;;2.60;99.90;;;;;;5015588;28;20084;-85
2021/04/06 07:41:33;;;;;;;7.70;1.88;;;2.60;99.90;;;;;;5014132;28;20104;-85
2021/04/06 07:44:01;;;;;;;6.17;0.80;;;2.60;99.90;;;;;;5015844;28;20033;-86
2021/04/06 07:46:32;;;;;;;5.18;1.55;;;2.60;99.90;;;;;;5014259;28;20120;-86
2021/04/06 07:48:59;;;;;;;8.63;1.08;;;2.50;99.90;;;;;;5015677;28;20113;-86
2021/04/06 07:51:28;;;;;;;10.85;1.58;;;2.40;99.90;;;;;;5014309;28;20385;-86
2021/04/06 07:53:59;;;;;;;6.33;1.10;;;2.40;99.90;;;;;;5014399;28;20053;-86
2021/04/06 07:56:42;;;;;;;9.93;1.20;;;2.50;99.90;;;;;;5014122;28;20021;-86
2021/04/06 07:59:28;;;;;;;7.00;1.20;;;2.60;99.90;;;;;;5015367;28;20037;-86
2021/04/06 08:01:54;;;;;;;11.07;1.55;;;2.60;99.90;;;;;;5008027;28;20044;-86
2021/04/06 08:04:38;;;;;;;6.97;1.20;;;2.50;99.90;;;;;;5014128;28;20116;-86
2021/04/06 08:07:23;;;;;;;7.90;1.63;;;2.50;99.90;;;;;;5015073;28;20025;-86
2021/04/06 08:09:51;;;;;;;5.30;1.05;;;2.50;99.90;;;;;;5014005;28;20048;-86
2021/04/06 08:12:19;;;;;;;7.20;1.30;;;2.50;99.90;;;;;;5015298;28;20378;-86
2021/04/06 08:14:51;;;;;;;5.03;1.13;;;2.60;99.90;;;;;;5015171;28;20021;-86
2021/04/06 08:17:28;;;;;;;11.85;1.48;;;2.60;99.90;;;;;;5035075;28;20029;-86
2021/04/06 08:20:30;;;;;;;8.85;1.27;;;2.60;99.90;;;;;;5033589;28;20575;-86
2021/04/06 08:22:59;;;;;;;8.50;1.23;;;2.50;99.90;;;;;;5022080;28;20046;-86
2021/04/06 08:25:30;;;;;;;9.90;1.50;;;2.50;99.90;;;;;;5033707;28;20128;-86
2021/04/06 08:27:58;;;;;;;11.10;1.38;;;2.60;99.90;;;;;;5034001;28;20469;-85
2021/04/06 08:30:29;;;;;;;3.63;1.00;;;2.70;99.90;;;;;;5050170;28;20123;-86
2021/04/06 08:32:58;;;;;;;4.97;0.95;;;2.90;99.90;;;;;;5050024;28;20021;-85
2021/04/06 08:35:46;;;;;;;5.60;1.13;;;3.00;99.90;;;;;;5049962;28;20052;-85
2021/04/06 08:38:28;;;;;;;9.98;1.20;;;3.40;99.90;;;;;;5043300;28;20026;-86
2021/04/06 08:40:55;;;;;;;4.60;1.30;;;3.50;99.90;;;;;;5031237;28;20547;-86
2021/04/06 08:43:28;;;;;;;5.70;0.80;;;3.50;99.90;;;;;;5024427;28;20028;-85
2021/04/06 08:46:09;;;;;;;2.95;0.73;;;3.60;99.90;;;;;;5034730;28;20018;-84
2021/04/06 08:48:44;;;;;;;4.22;0.63;;;3.70;99.90;;;;;;5022249;28;20449;-84
2021/04/06 08:51:38;;;;;;;6.35;0.80;;;3.80;99.90;;;;;;5026895;28;20025;-84
2021/04/06 08:54:12;;;;;;;5.10;1.10;;;3.90;99.90;;;;;;5031136;28;20423;-84
2021/04/06 08:56:42;;;;;;;8.27;1.60;;;3.80;99.90;;;;;;5032852;28;20010;-84
2021/04/06 08:59:32;;;;;;;4.45;1.40;;;3.90;99.90;;;;;;5027860;28;20021;-85
2021/04/06 09:02:00;;;;;;;8.98;1.20;;;4.10;99.90;;;;;;5023469;28;20036;-84
2021/04/06 09:04:29;;;;;;;6.97;1.10;;;4.20;99.90;;;;;;5035143;28;20025;-84
2021/04/06 09:06:55;;;;;;;4.07;0.90;;;4.30;99.90;;;;;;5020745;28;20060;-84
2021/04/06 09:09:26;;;;;;;7.15;1.33;;;4.40;99.90;;;;;;5017514;28;20034;-84
2021/04/06 09:11:54;;;;;;;9.60;1.17;;;4.70;99.90;;;;;;5028752;28;20425;-85
2021/04/06 09:14:20;;;;;;;4.82;0.80;;;4.70;98.90;;;;;;5030830;28;20396;-84
2021/04/06 09:16:46;;;;;;;7.32;0.88;;;4.80;98.30;;;;;;5028696;28;20029;-84
2021/04/06 09:19:13;;;;;;;9.38;1.55;;;4.70;98.30;;;;;;5027650;28;20026;-85
2021/04/06 09:21:42;;;;;;;6.00;1.05;;;4.60;98.20;;;;;;5031415;28;20021;-84
2021/04/06 09:24:11;;;;;;;6.65;1.13;;;4.50;97.10;;;;;;5039749;28;20397;-85
2021/04/06 09:26:38;;;;;;;11.25;1.58;;;5.20;96.50;;;;;;5030443;28;20389;-85
2021/04/06 09:29:13;;;;;;;5.82;1.10;;;6.80;93.70;;;;;;5016736;28;20037;-85
2021/04/06 09:31:47;;;;;;;7.35;0.90;;;7.30;91.60;;;;;;5026874;28;20033;-85
2021/04/06 09:34:21;;;;;;;8.35;1.00;;;7.20;90.50;;;;;;5023522;28;20036;-84
2021/04/06 09:37:01;;;;;;;4.88;1.20;;;7.60;86.50;;;;;;5032042;28;20026;-85
2021/04/06 09:39:28;;;;;;;11.68;1.23;;;8.60;84.30;;;;;;5029041;28;20453;-85
2021/04/06 09:41:55;;;;;;;6.38;1.23;;;8.30;79.00;;;;;;5013489;28;20456;-85
2021/04/06 09:44:27;;;;;;;8.38;1.45;;;9.40;78.80;;;;;;5038796;28;20029;-84
2021/04/06 09:46:58;;;;;;;8.85;1.30;;;9.40;75.40;;;;;;5019896;28;20029;-84
2021/04/06 09:49:30;;;;;;;6.72;1.30;;;8.10;79.00;;;;;;5026087;28;20525;-84
2021/04/06 09:51:56;;;;;;;6.40;0.82;;;7.10;83.20;;;;;;5028183;28;20059;-84
2021/04/06 09:54:31;;;;;;;5.13;1.00;;;6.20;88.10;;;;;;5032042;28;20021;-84
2021/04/06 09:56:59;;;;;;;7.65;1.48;;;5.50;92.10;;;;;;5031231;28;20028;-84
2021/04/06 09:59:26;;;;;;;8.27;1.67;;;5.00;94.20;;;;;;5030846;28;20025;-84
2021/04/06 10:01:59;;;;;;;5.35;1.20;;;4.60;95.80;;;;;;5027308;28;20053;-84
2021/04/06 10:04:39;;;;;;;4.18;0.82;;;4.30;97.00;;;;;;4997203;28;20037;-85
2021/04/06 10:07:09;;;;;;;;;;;4.30;97.70;;;;;;5011577;28;20030;-83
2021/04/06 10:09:37;;;;;;;5.78;0.82;;;4.20;98.60;;;;;;5013971;28;19941;-84
2021/04/06 10:12:03;;;;;;;6.57;0.65;;;4.10;99.60;;;;;;5012420;28;20026;-84
2021/04/06 10:14:29;;;;;;;5.63;0.85;;;4.00;99.90;;;;;;5022120;28;20022;-84
2021/04/06 10:17:07;;;;;;;5.05;0.63;;;4.00;99.90;;;;;;5034144;28;20018;-85
2021/04/06 10:19:34;;;;;;;4.53;0.60;;;4.40;99.90;;;;;;5030255;28;20485;-87
2021/04/06 10:22:14;;;;;;;2.22;1.00;;;7.40;99.90;;;;;;5017827;28;20481;-85
2021/04/06 10:24:46;;;;;;;2.97;0.60;;;10.60;98.30;;;;;;5050030;28;20108;-84
2021/04/06 10:27:18;;;;;;;3.30;0.73;;;12.80;92.80;;;;;;5037550;28;20035;-85
2021/04/06 10:29:45;;;;;;;3.22;0.75;;;14.10;88.80;;;;;;5028999;28;20025;-84
2021/04/06 10:32:32;;;;;;;3.45;1.10;;;15.00;81.90;;;;;;5029989;28;20032;-85
2021/04/06 10:35:02;;;;;;;4.97;1.20;;;16.00;72.40;;;;;;5028808;28;20037;-86
2021/04/06 10:37:38;;;;;;;7.03;2.13;;;14.70;61.50;;;;;;5030629;28;20048;-86
2021/04/06 10:40:30;;;;;;;2.42;1.08;;;12.70;62.20;;;;;;5045079;28;20025;-86
2021/04/06 10:43:05;;;;;;;7.80;1.40;;;10.70;67.40;;;;;;5030589;28;20049;-86
2021/04/06 10:45:32;;;;;;;5.20;0.75;;;9.20;72.40;;;;;;5000675;28;20029;-84
2021/04/06 10:48:09;;;;;;;3.83;0.77;;;7.90;74.40;;;;;;4999570;28;20057;-83
2021/04/06 10:50:38;;;;;;;2.00;0.68;;;6.90;81.30;;;;;;5021356;28;20026;-85
2021/04/06 10:53:24;;;;;;;0.90;0.30;;;6.30;86.40;;;;;;5029677;28;20017;-85
2021/04/06 10:56:11;;;;;;;1.67;0.30;;;6.20;90.10;;;;;;5046268;28;20014;-85
2021/04/06 10:58:59;;;;;;;0.82;0.20;;;7.70;90.20;;;;;;5028330;28;20525;-85
2021/04/06 11:01:46;;;;;;;1.10;0.20;;;7.60;84.80;;;;;;5021856;28;20132;-84
2021/04/06 11:04:17;;;;;;;1.40;0.30;;;8.30;86.70;;;;;;5032685;28;20060;-82
2021/04/06 11:06:46;;;;;;;1.42;0.28;;;10.40;81.60;;;;;;5028070;28;20029;-83
2021/04/06 11:09:21;;;;;;;1.13;0.47;;;12.00;74.50;;;;;;5032815;28;20025;-83
2021/04/06 11:11:49;;;;;;;2.92;0.50;;;13.10;68.90;;;;;;5031092;28;20040;-83
2021/04/06 11:14:23;;;;;;;2.38;0.40;;;13.80;59.60;;;;;;5034478;28;20053;-83
2021/04/06 11:16:49;;;;;;;4.05;0.90;;;13.90;55.90;;;;;;5043883;28;20445;-84
2021/04/06 11:19:25;;;;;;;3.28;0.80;;;13.80;54.30;;;;;;5034093;28;20072;-84
2021/04/06 11:21:59;;;;;;;3.55;1.35;;;13.70;54.80;;;;;;5047453;28;20096;-83
2021/04/06 11:24:28;;;;;;;5.60;0.93;;;13.10;54.10;;;;;;5030125;28;20101;-82
2021/04/06 11:26:55;;;;;;;2.03;0.63;;;11.90;54.50;;;;;;5030599;28;20025;-81
2021/04/06 11:29:24;;;;;;;3.45;0.77;;;11.50;57.60;;;;;;5044588;28;20076;-83
2021/04/06 11:31:51;;;;;;;1.20;0.60;;;10.60;58.70;;;;;;5033722;28;20469;-82
2021/04/06 11:34:18;;;;;;;3.53;0.70;;;9.60;62.30;;;;;;5045049;28;20354;-82
2021/04/06 11:36:45;;;;;;;3.13;0.80;;;8.60;67.30;;;;;;5047970;28;20025;-82
2021/04/06 11:39:12;;;;;;;1.83;0.60;;;8.60;71.80;;;;;;5033984;28;20503;-82
2021/04/06 11:41:39;;;;;;;2.60;0.50;;;9.80;69.80;;;;;;5041540;28;20060;-82
2021/04/06 11:44:05;;;;;;;2.40;0.73;;;11.10;64.90;;;;;;5036420;28;20105;-86
2021/04/06 11:46:34;;;;;;;2.70;0.47;;;12.10;61.40;;;;;;5042958;28;20512;-84
2021/04/06 11:49:00;;;;;;;3.03;0.60;;;12.30;53.50;;;;;;5032768;28;20022;-84
2021/04/06 11:51:26;;;;;;;2.85;0.52;;;12.70;54.20;;;;;;5041809;28;20132;-82
2021/04/06 11:53:52;;;;;;;3.50;0.70;;;13.10;51.90;;;;;;5031016;28;20018;-82
2021/04/06 11:56:17;;;;;;;2.08;0.50;;;13.40;50.80;;;;;;5031649;28;20029;-82
2021/04/06 11:58:43;;;;;;;2.30;0.50;;;14.00;49.90;;;;;;5040596;28;20481;-83
2021/04/06 12:01:09;;;;;;;3.78;0.60;;;13.80;49.70;;;;;;5041166;28;20049;-82
2021/04/06 12:03:34;;;;;;;6.07;3.97;;;12.80;50.00;;;;;;5033435;28;20093;-82
2021/04/06 12:06:00;;;;;;;2.92;1.40;;;11.70;52.90;;;;;;5033282;28;20021;-82
2021/04/06 12:08:25;;;;;;;3.22;1.40;;;10.80;60.80;;;;;;5045738;28;20072;-82
2021/04/06 12:10:51;;;;;;;3.63;0.90;;;9.70;68.90;;;;;;5032107;28;20068;-82
2021/04/06 12:13:17;;;;;;;2.63;0.40;;;8.70;75.10;;;;;;5044193;28;20397;-82
2021/04/06 12:15:42;;;;;;;3.30;0.63;;;7.90;82.10;;;;;;5028147;28;20022;-83
2021/04/06 12:18:08;;;;;;;4.88;0.98;;;7.20;86.30;;;;;;5039751;28;20065;-82
2021/04/06 12:20:34;;;;;;;5.38;0.82;;;6.50;88.50;;;;;;5033338;28;20052;-83
2021/04/06 12:22:59;;;;;;;3.45;0.70;;;6.00;90.30;;;;;;5031845;28;20032;-82
2021/04/06 12:25:25;;;;;;;4.05;0.80;;;5.60;91.60;;;;;;5028551;28;20080;-81
2021/04/06 12:27:51;;;;;;;5.82;0.80;;;5.30;93.00;;;;;;5040675;28;20132;-82
2021/04/06 12:30:17;;;;;;;4.10;0.70;;;5.10;93.50;;;;;;5029396;28;20112;-81
2021/04/06 12:32:43;;;;;;;3.67;0.50;;;5.00;94.30;;;;;;5034344;28;20104;-82
2021/04/06 12:35:10;;;;;;;2.95;0.40;;;5.10;93.30;;;;;;5032577;28;20025;-82
2021/04/06 12:37:36;;;;;;;2.80;0.70;;;5.50;93.20;;;;;;5030962;28;20032;-82
2021/04/06 12:40:04;;;;;;;2.42;0.60;;;6.10;93.10;;;;;;5031334;28;20397;-83
2021/04/06 12:42:29;;;;;;;1.67;0.40;;;6.90;91.70;;;;;;5029966;28;20128;-82
2021/04/06 12:44:55;;;;;;;2.17;0.28;;;8.00;88.20;;;;;;5021284;28;21076;-82
2021/04/06 12:47:21;;;;;;;1.00;0.35;;;9.40;84.80;;;;;;5003385;28;20548;-82
2021/04/06 12:49:48;;;;;;;1.38;0.40;;;10.60;76.80;;;;;;5005161;28;20043;-82
2021/04/06 12:52:13;;;;;;;2.08;0.30;;;11.20;68.40;;;;;;5030925;28;20070;-82
2021/04/06 12:54:39;;;;;;;1.92;0.32;;;11.90;62.80;;;;;;5030922;28;20025;-83
2021/04/06 12:57:04;;;;;;;2.80;0.75;;;12.10;60.30;;;;;;5032177;28;20036;-82
2021/04/06 12:59:31;;;;;;;2.08;0.50;;;12.40;59.70;;;;;;5031864;28;20038;-83
2021/04/06 13:01:56;;;;;;;2.03;0.40;;;12.80;58.30;;;;;;5047550;28;20148;-83
2021/04/06 13:04:22;;;;;;;1.73;0.50;;;13.10;56.50;;;;;;5030959;28;20112;-82
2021/04/06 13:06:47;;;;;;;1.80;0.60;;;13.10;54.30;;;;;;5044954;28;20142;-82